createdAt,value
2023-02-03T00:01:30.338Z,97178.34
2023-02-03T00:03:56.924Z,97175.91
2023-02-03T00:06:24.092Z,97176.97
2023-02-03T00:08:54.379Z,97185.34
2023-02-03T00:11:21.143Z,97169.59
2023-02-03T00:13:47.744Z,97155.72
2023-02-03T00:16:14.362Z,97181.41
2023-02-03T00:18:40.927Z,97175.34
2023-02-03T00:21:07.640Z,97166.97
2023-02-03T00:23:34.315Z,97175.69
2023-02-03T00:26:11.972Z,97167.13
2023-02-03T00:28:38.767Z,97170.09
2023-02-03T00:31:05.565Z,97164.25
2023-02-03T00:33:33.828Z,97182.59
2023-02-03T00:36:06.213Z,97166.00
2023-02-03T00:38:32.899Z,97164.22
2023-02-03T00:40:59.470Z,97154.78
2023-02-03T00:43:26.407Z,97171.75
2023-02-03T00:45:53.010Z,97167.81
2023-02-03T00:48:20.706Z,97172.69
2023-02-03T00:50:48.175Z,97175.13
2023-02-03T00:53:14.822Z,97163.03
2023-02-03T00:55:43.307Z,97162.59
2023-02-03T00:58:09.919Z,97173.34
2023-02-03T01:00:36.496Z,97182.50
2023-02-03T01:03:03.466Z,97177.19
2023-02-03T01:05:30.337Z,97170.25
2023-02-03T01:07:57.001Z,97174.69
2023-02-03T01:10:23.732Z,97166.31
2023-02-03T01:12:50.397Z,97162.81
2023-02-03T01:15:17.143Z,97160.16
2023-02-03T01:17:43.707Z,97149.34
2023-02-03T01:20:12.381Z,97149.78
2023-02-03T01:22:39.315Z,97146.16
2023-02-03T01:25:06.620Z,97151.91
2023-02-03T01:27:33.773Z,97155.25
2023-02-03T01:30:00.406Z,97128.53
2023-02-03T01:32:27.555Z,97136.41
2023-02-03T01:34:54.177Z,97142.00
2023-02-03T01:37:20.904Z,97130.88
2023-02-03T01:39:47.493Z,97131.47
2023-02-03T01:42:15.799Z,97130.31
2023-02-03T01:44:55.162Z,97128.44
2023-02-03T01:47:37.772Z,97126.75
2023-02-03T01:50:13.452Z,97121.22
2023-02-03T01:52:43.348Z,97116.91
2023-02-03T01:55:13.882Z,97126.31
2023-02-03T01:57:47.458Z,97126.91
2023-02-03T02:00:14.815Z,97123.00
2023-02-03T02:02:44.948Z,97121.97
2023-02-03T02:05:32.782Z,97136.88
2023-02-03T02:08:01.974Z,97134.00
2023-02-03T02:10:32.545Z,97138.69
2023-02-03T02:13:00.596Z,97137.53
2023-02-03T02:15:48.746Z,97128.69
2023-02-03T02:18:37.141Z,97140.41
2023-02-03T02:21:33.083Z,97135.69
2023-02-03T02:24:31.843Z,97132.66
2023-02-03T02:27:34.284Z,97127.66
2023-02-03T02:30:34.501Z,97123.16
2023-02-03T02:33:26.572Z,97129.81
2023-02-03T02:36:13.659Z,97126.91
2023-02-03T02:38:55.595Z,97134.69
2023-02-03T02:41:28.480Z,97130.63
2023-02-03T02:44:07.853Z,97134.38
2023-02-03T02:46:47.375Z,97122.91
2023-02-03T02:49:32.064Z,97110.22
2023-02-03T02:52:03.147Z,97112.28
2023-02-03T02:54:32.131Z,97115.97
2023-02-03T02:57:03.350Z,97109.41
2023-02-03T02:59:29.946Z,97116.34
2023-02-03T03:01:56.550Z,97112.44
2023-02-03T03:04:27.467Z,97115.28
2023-02-03T03:07:17.420Z,97117.25
2023-02-03T03:09:51.032Z,97115.19
2023-02-03T03:12:24.067Z,97117.19
2023-02-03T03:14:58.489Z,97118.22
2023-02-03T03:17:39.456Z,97123.59
2023-02-03T03:20:10.696Z,97092.13
2023-02-03T03:22:42.758Z,97111.78
2023-02-03T03:25:39.624Z,97097.88
2023-02-03T03:28:12.385Z,97106.00
2023-02-03T03:30:39.494Z,97103.47
2023-02-03T03:33:08.426Z,97104.13
2023-02-03T03:36:10.282Z,97088.53
2023-02-03T03:38:42.603Z,97089.34
2023-02-03T03:41:23.129Z,97094.06
2023-02-03T03:43:53.172Z,97081.81
2023-02-03T03:46:25.529Z,97088.09
2023-02-03T03:49:00.108Z,97099.66
2023-02-03T03:51:34.058Z,97099.34
2023-02-03T03:54:06.005Z,97115.78
2023-02-03T03:56:39.402Z,97105.19
2023-02-03T03:59:09.035Z,97096.56
2023-02-03T04:01:36.896Z,97103.06
2023-02-03T04:04:09.393Z,97094.50
2023-02-03T04:06:38.860Z,97098.03
2023-02-03T04:09:05.666Z,97102.19
2023-02-03T04:11:50.751Z,97089.94
2023-02-03T04:14:17.907Z,97091.56
2023-02-03T04:16:44.500Z,97099.34
2023-02-03T04:19:11.067Z,97091.63
2023-02-03T04:21:37.656Z,97102.19
2023-02-03T04:24:04.453Z,97098.47
2023-02-03T04:26:31.036Z,97096.47
2023-02-03T04:28:57.598Z,97098.69
2023-02-03T04:31:24.294Z,97086.84
2023-02-03T04:33:50.925Z,97089.94
2023-02-03T04:36:17.533Z,97097.16
2023-02-03T04:38:44.107Z,97105.78
2023-02-03T04:41:10.701Z,97101.06
2023-02-03T04:43:37.323Z,97090.25
2023-02-03T04:46:04.052Z,97101.56
2023-02-03T04:48:30.690Z,97099.66
2023-02-03T04:51:03.354Z,97104.53
2023-02-03T04:53:31.260Z,97101.00
2023-02-03T04:55:57.946Z,97116.91
2023-02-03T04:58:26.366Z,97106.00
2023-02-03T05:00:54.724Z,97110.41
2023-02-03T05:03:22.588Z,97107.19
2023-02-03T05:05:50.963Z,97094.06
2023-02-03T05:08:17.591Z,97095.25
2023-02-03T05:10:44.179Z,97098.91
2023-02-03T05:13:10.971Z,97099.88
2023-02-03T05:15:37.544Z,97103.34
2023-02-03T05:18:04.183Z,97115.22
2023-02-03T05:20:30.764Z,97116.03
2023-02-03T05:22:58.730Z,97126.63
2023-02-03T05:25:25.327Z,97110.72
2023-02-03T05:27:51.965Z,97111.69
2023-02-03T05:30:18.853Z,97112.34
2023-02-03T05:32:45.542Z,97115.34
2023-02-03T05:35:12.151Z,97126.84
2023-02-03T05:37:38.724Z,97139.25
2023-02-03T05:40:24.337Z,97139.59
2023-02-03T05:42:50.938Z,97114.34
2023-02-03T05:45:17.759Z,97114.78
2023-02-03T05:47:44.326Z,97120.78
2023-02-03T05:50:11.001Z,97106.06
2023-02-03T05:52:37.677Z,97104.06
2023-02-03T05:55:04.599Z,97084.91
2023-02-03T05:57:32.348Z,97101.09
2023-02-03T05:59:59.082Z,97090.03
2023-02-03T06:02:25.666Z,97094.91
2023-02-03T06:04:52.244Z,97110.81
2023-02-03T06:07:18.861Z,97112.59
2023-02-03T06:09:45.462Z,97109.72
2023-02-03T06:12:12.139Z,97112.47
2023-02-03T06:14:38.728Z,97107.41
2023-02-03T06:17:05.343Z,97098.53
2023-02-03T06:19:31.982Z,97096.72
2023-02-03T06:21:58.587Z,97088.88
2023-02-03T06:24:25.161Z,97077.91
2023-02-03T06:26:51.774Z,97088.41
2023-02-03T06:29:18.388Z,97092.94
2023-02-03T06:31:45.119Z,97100.91
2023-02-03T06:34:11.878Z,97101.94
2023-02-03T06:36:38.481Z,97083.47
2023-02-03T06:39:05.120Z,97095.25
2023-02-03T06:41:32.862Z,97090.41
2023-02-03T06:43:59.440Z,97086.25
2023-02-03T06:46:29.902Z,97090.53
2023-02-03T06:48:56.684Z,97111.19
2023-02-03T06:51:24.920Z,97095.38
2023-02-03T06:53:51.869Z,97094.81
2023-02-03T06:56:18.471Z,97084.75
2023-02-03T06:58:45.158Z,97073.56
2023-02-03T07:01:11.817Z,97075.75
2023-02-03T07:03:38.402Z,97072.66
2023-02-03T07:06:05.276Z,97083.63
2023-02-03T07:08:31.892Z,97068.13
2023-02-03T07:10:58.456Z,97066.31
2023-02-03T07:13:25.130Z,97073.44
2023-02-03T07:15:51.949Z,97076.59
2023-02-03T07:18:45.227Z,97090.44
2023-02-03T07:21:08.265Z,97100.41
2023-02-03T07:23:34.905Z,97108.38
2023-02-03T07:26:04.541Z,97100.28
2023-02-03T07:28:32.023Z,97108.47
2023-02-03T07:30:58.731Z,97121.19
2023-02-03T07:33:25.407Z,97123.06
2023-02-03T07:35:53.495Z,97101.44
2023-02-03T07:38:20.124Z,97100.28
2023-02-03T07:40:46.789Z,97093.78
2023-02-03T07:43:13.630Z,97074.63
2023-02-03T07:45:40.571Z,97081.00
2023-02-03T07:48:07.228Z,97082.47
2023-02-03T07:50:34.382Z,97051.19
2023-02-03T07:53:01.585Z,97063.44
2023-02-03T07:55:28.848Z,97058.38
2023-02-03T07:57:57.097Z,97073.72
2023-02-03T08:00:24.343Z,97070.84
2023-02-03T08:02:50.960Z,97072.03
2023-02-03T08:05:18.789Z,97069.00
2023-02-03T08:07:45.891Z,97062.19
2023-02-03T08:10:13.918Z,97058.63
2023-02-03T08:12:40.522Z,97051.69
2023-02-03T08:15:07.573Z,97047.72
2023-02-03T08:17:34.203Z,97053.03
2023-02-03T08:20:01.058Z,97022.53
2023-02-03T08:22:27.804Z,97016.28
2023-02-03T08:24:54.438Z,97029.47
2023-02-03T08:27:22.790Z,97021.13
2023-02-03T08:29:49.711Z,97031.91
2023-02-03T08:32:19.843Z,97034.56
2023-02-03T08:34:46.531Z,97054.06
2023-02-03T08:37:14.978Z,97048.97
2023-02-03T08:39:42.042Z,97040.06
2023-02-03T08:42:09.355Z,97049.59
2023-02-03T08:44:36.077Z,97019.72
2023-02-03T08:47:02.987Z,97033.16
2023-02-03T08:49:30.983Z,97032.00
2023-02-03T08:51:58.745Z,97038.47
2023-02-03T08:54:26.295Z,97055.94
2023-02-03T08:56:53.489Z,97025.38
2023-02-03T08:59:20.294Z,97028.03
2023-02-03T09:01:48.571Z,97032.53
2023-02-03T09:04:19.766Z,97046.66
2023-02-03T09:06:50.256Z,97042.72
2023-02-03T09:09:16.909Z,97046.09
2023-02-03T09:11:43.982Z,97033.34
2023-02-03T09:14:10.896Z,97052.44
2023-02-03T09:16:37.811Z,97040.28
2023-02-03T09:19:04.489Z,97030.56
2023-02-03T09:21:33.290Z,97028.16
2023-02-03T09:24:08.945Z,97034.50
2023-02-03T09:26:35.644Z,97037.25
2023-02-03T09:29:02.285Z,97025.81
2023-02-03T09:31:28.918Z,97023.16
2023-02-03T09:33:55.631Z,97046.63
2023-02-03T09:36:22.232Z,97038.66
2023-02-03T09:38:48.815Z,97044.88
2023-02-03T09:41:45.413Z,97036.41
2023-02-03T09:44:48.955Z,97007.97
2023-02-03T09:47:28.819Z,97002.28
2023-02-03T09:50:01.923Z,97012.94
2023-02-03T09:52:34.500Z,97039.66
2023-02-03T09:55:22.769Z,97018.69
2023-02-03T09:57:57.146Z,97025.88
2023-02-03T10:00:33.014Z,97018.00
2023-02-03T10:03:21.848Z,97020.75
2023-02-03T10:05:57.617Z,97016.56
2023-02-03T10:08:45.943Z,97016.56
2023-02-03T10:11:28.978Z,97020.28
2023-02-03T10:14:17.073Z,97010.28
2023-02-03T10:17:14.816Z,97019.00
2023-02-03T10:19:50.641Z,97010.22
2023-02-03T10:22:22.194Z,97008.34
2023-02-03T10:24:56.943Z,97002.31
2023-02-03T10:27:25.122Z,96991.25
2023-02-03T10:30:10.844Z,96986.13
2023-02-03T10:32:37.857Z,96986.59
2023-02-03T10:35:12.425Z,96997.72
2023-02-03T10:37:51.698Z,96997.97
2023-02-03T10:40:18.399Z,96996.22
2023-02-03T10:43:06.827Z,96994.03
2023-02-03T10:45:37.733Z,96969.47
2023-02-03T10:48:07.240Z,96979.66
2023-02-03T10:50:35.492Z,96972.56
2023-02-03T10:53:24.334Z,96969.47
2023-02-03T10:56:02.443Z,96959.81
2023-02-03T10:58:31.838Z,96957.97
2023-02-03T11:01:06.919Z,96960.16
2023-02-03T11:03:34.422Z,96967.75
2023-02-03T11:06:05.700Z,96963.56
2023-02-03T11:08:33.612Z,96952.31
2023-02-03T11:11:13.947Z,96929.47
2023-02-03T11:13:41.163Z,96944.81
2023-02-03T11:16:15.755Z,96924.31
2023-02-03T11:18:51.136Z,96921.72
2023-02-03T11:21:20.345Z,96911.94
2023-02-03T11:24:15.886Z,96908.97
2023-02-03T11:26:49.670Z,96893.63
2023-02-03T11:29:31.500Z,96909.38
2023-02-03T11:32:01.924Z,96919.59
2023-02-03T11:34:31.522Z,96898.53
2023-02-03T11:36:58.215Z,96890.72
2023-02-03T11:39:35.497Z,96902.19
2023-02-03T11:42:03.073Z,96903.56
2023-02-03T11:44:33.992Z,96901.88
2023-02-03T11:47:07.727Z,96897.03
2023-02-03T11:50:03.779Z,96890.72
2023-02-03T11:52:50.410Z,96868.81
2023-02-03T11:55:33.124Z,96885.41
2023-02-03T11:58:30.913Z,96868.75
2023-02-03T12:01:22.885Z,96861.91
2023-02-03T12:04:15.613Z,96853.91
2023-02-03T12:07:00.507Z,96836.78
2023-02-03T12:09:51.232Z,96830.25
2023-02-03T12:12:51.210Z,96865.84
2023-02-03T12:15:51.680Z,96810.78
2023-02-03T12:18:27.023Z,96812.72
2023-02-03T12:21:09.561Z,96817.84
2023-02-03T12:24:19.633Z,96805.28
2023-02-03T12:26:59.924Z,96786.91
2023-02-03T12:29:39.029Z,96785.38
2023-02-03T12:32:23.724Z,96764.38
2023-02-03T12:35:06.014Z,96756.63
2023-02-03T12:37:47.883Z,96747.59
2023-02-03T12:40:34.666Z,96727.38
2023-02-03T12:43:18.056Z,96716.41
2023-02-03T12:45:49.900Z,96703.94
2023-02-03T12:48:22.778Z,96708.47
2023-02-03T12:50:52.376Z,96703.94
2023-02-03T12:53:25.011Z,96709.41
2023-02-03T12:56:10.822Z,96710.44
2023-02-03T12:58:42.257Z,96716.31
2023-02-03T13:01:16.230Z,96704.84
2023-02-03T13:03:51.879Z,96662.47
2023-02-03T13:06:46.128Z,96665.13
2023-02-03T13:09:22.639Z,96681.13
2023-02-03T13:11:59.082Z,96674.66
2023-02-03T13:14:53.250Z,96658.75
2023-02-03T13:17:28.096Z,96649.94
2023-02-03T13:20:03.210Z,96630.72
2023-02-03T13:22:29.900Z,96634.75
2023-02-03T13:25:07.693Z,96627.25
2023-02-03T13:27:43.036Z,96636.84
2023-02-03T13:30:32.730Z,96641.63
2023-02-03T13:33:20.855Z,96640.53
2023-02-03T13:35:56.704Z,96623.47
2023-02-03T13:38:45.341Z,96630.94
2023-02-03T13:41:30.871Z,96612.22
2023-02-03T13:43:59.168Z,96619.13
2023-02-03T13:46:32.805Z,96626.88
2023-02-03T13:49:02.278Z,96623.88
2023-02-03T13:51:36.047Z,96619.81
2023-02-03T13:54:36.446Z,96574.84
2023-02-03T13:57:18.825Z,96600.63
2023-02-03T13:59:46.061Z,96595.53
2023-02-03T14:02:21.436Z,96603.78
2023-02-03T14:04:48.066Z,96580.56
2023-02-03T14:07:24.710Z,96562.63
2023-02-03T14:10:16.951Z,96527.38
2023-02-03T14:12:49.495Z,96539.88
2023-02-03T14:15:25.301Z,96533.22
2023-02-03T14:17:51.897Z,96532.31
2023-02-03T14:20:27.700Z,96528.09
2023-02-03T14:23:06.487Z,96550.19
2023-02-03T14:26:00.170Z,96528.31
2023-02-03T14:28:37.962Z,96521.88
2023-02-03T14:31:12.621Z,96522.13
2023-02-03T14:33:48.384Z,96503.47
2023-02-03T14:36:40.001Z,96492.78
2023-02-03T14:39:18.849Z,96507.19
2023-02-03T14:42:22.917Z,96494.13
2023-02-03T14:44:59.326Z,96476.50
2023-02-03T14:47:48.839Z,96444.50
2023-02-03T14:50:26.252Z,96437.31
2023-02-03T14:53:10.881Z,96449.84
2023-02-03T14:56:00.616Z,96466.06
2023-02-03T14:58:34.359Z,96451.97
2023-02-03T15:01:04.671Z,96460.97
2023-02-03T15:03:31.783Z,96447.38
2023-02-03T15:06:04.027Z,96464.41
2023-02-03T15:08:48.344Z,96470.50
2023-02-03T15:11:31.060Z,96449.97
2023-02-03T15:14:24.452Z,96451.88
2023-02-03T15:16:56.105Z,96451.34
2023-02-03T15:19:25.800Z,96475.03
2023-02-03T15:21:52.656Z,96471.34
2023-02-03T15:24:22.950Z,96480.38
2023-02-03T15:26:55.292Z,96505.47
2023-02-03T15:29:26.694Z,96496.94
2023-02-03T15:32:17.750Z,96520.94
2023-02-03T15:34:49.527Z,96539.63
2023-02-03T15:37:28.625Z,96558.34
2023-02-03T15:40:05.842Z,96570.09
2023-02-03T15:42:53.530Z,96576.16
2023-02-03T15:45:26.092Z,96602.53
2023-02-03T15:48:00.266Z,96592.47
2023-02-03T15:50:32.474Z,96605.78
2023-02-03T15:53:06.378Z,96606.06
2023-02-03T15:55:38.084Z,96614.59
2023-02-03T15:58:05.469Z,96611.78
2023-02-03T16:00:38.249Z,96612.31
2023-02-03T16:03:15.126Z,96602.78
2023-02-03T16:05:44.798Z,96588.88
2023-02-03T16:08:37.527Z,96581.09
2023-02-03T16:11:27.195Z,96593.13
2023-02-03T16:13:57.348Z,96597.88
2023-02-03T16:16:33.202Z,96594.72
2023-02-03T16:19:13.863Z,96600.03
2023-02-03T16:22:02.159Z,96613.81
2023-02-03T16:24:41.090Z,96591.38
2023-02-03T16:27:26.154Z,96609.97
2023-02-03T16:30:31.437Z,96611.41
2023-02-03T16:33:42.397Z,96604.69
2023-02-03T16:36:33.148Z,96632.88
2023-02-03T16:39:21.505Z,96630.34
2023-02-03T16:42:06.928Z,96610.34
2023-02-03T16:44:51.891Z,96614.22
2023-02-03T16:47:42.837Z,96616.59
2023-02-03T16:50:39.709Z,96628.66
2023-02-03T16:53:13.599Z,96598.75
2023-02-03T16:55:41.165Z,96568.28
2023-02-03T16:58:08.785Z,96581.00
2023-02-03T17:00:35.409Z,96567.59
2023-02-03T17:03:05.197Z,96558.53
2023-02-03T17:05:32.158Z,96533.47
2023-02-03T17:07:58.937Z,96567.97
2023-02-03T17:10:26.487Z,96537.66
2023-02-03T17:12:53.109Z,96544.03
2023-02-03T17:15:19.688Z,96563.13
2023-02-03T17:17:46.255Z,96576.78
2023-02-03T17:20:13.080Z,96589.34
2023-02-03T17:22:39.663Z,96573.59
2023-02-03T17:25:06.609Z,96582.44
2023-02-03T17:27:33.333Z,96577.44
2023-02-03T17:29:59.973Z,96573.50
2023-02-03T17:32:26.550Z,96588.06
2023-02-03T17:34:53.167Z,96575.66
2023-02-03T17:37:19.777Z,96567.09
2023-02-03T17:53:31.712Z,96569.63
2023-02-03T17:55:59.239Z,96566.97
2023-02-03T17:58:25.790Z,96557.16
2023-02-03T18:00:52.414Z,96568.88
2023-02-03T18:03:19.036Z,96582.97
2023-02-03T18:05:52.483Z,96562.19
2023-02-03T18:08:20.549Z,96594.13
2023-02-03T18:10:50.917Z,96599.50
2023-02-03T18:13:18.307Z,96588.69
2023-02-03T18:15:44.959Z,96571.91
2023-02-03T18:18:11.651Z,96601.66
2023-02-03T18:20:38.299Z,96608.66
2023-02-03T18:23:04.904Z,96603.78
2023-02-03T18:25:31.644Z,96611.03
2023-02-03T18:27:58.339Z,96608.13
2023-02-03T18:30:25.027Z,96596.59
2023-02-03T18:32:54.936Z,96577.34
2023-02-03T18:35:21.697Z,96606.38
2023-02-03T18:37:48.309Z,96595.53
2023-02-03T18:40:15.145Z,96592.09
2023-02-03T18:42:41.762Z,96573.97
2023-02-03T18:45:09.102Z,96542.56
2023-02-03T18:47:35.935Z,96579.66
2023-02-03T18:50:02.532Z,96564.19
2023-02-03T18:52:29.098Z,96571.94
2023-02-03T18:54:55.689Z,96579.66
2023-02-03T18:57:22.963Z,96584.75
2023-02-03T18:59:49.744Z,96547.44
2023-02-03T19:02:16.506Z,96591.63
2023-02-03T19:04:43.495Z,96590.00
2023-02-03T19:07:12.350Z,96584.19
2023-02-03T19:09:40.058Z,96565.03
2023-02-03T19:12:07.865Z,96607.59
2023-02-03T19:14:35.240Z,96592.13
2023-02-03T19:17:02.199Z,96591.47
2023-02-03T19:19:28.973Z,96603.56
2023-02-03T19:21:55.638Z,96600.84
2023-02-03T19:24:22.202Z,96604.53
2023-02-03T19:26:48.784Z,96592.78
2023-02-03T19:29:15.721Z,96590.69
2023-02-03T19:31:42.363Z,96607.63
2023-02-03T19:34:09.061Z,96622.25
2023-02-03T19:36:35.730Z,96588.41
2023-02-03T19:39:02.292Z,96578.94
2023-02-03T19:41:30.840Z,96605.50
2023-02-03T19:43:57.400Z,96612.75
2023-02-03T19:46:25.573Z,96608.41
2023-02-03T19:48:52.204Z,96602.59
2023-02-03T19:51:18.818Z,96620.66
2023-02-03T19:53:45.383Z,96629.03
2023-02-03T19:56:12.539Z,96619.50
2023-02-03T19:58:39.346Z,96610.81
2023-02-03T20:01:06.157Z,96616.13
2023-02-03T20:03:32.821Z,96611.31
2023-02-03T20:06:00.999Z,96607.28
2023-02-03T20:08:27.943Z,96624.03
2023-02-03T20:10:54.634Z,96633.28
2023-02-03T20:13:21.298Z,96639.66
2023-02-03T20:15:48.042Z,96650.28
2023-02-03T20:18:14.710Z,96640.16
2023-02-03T20:20:41.753Z,96631.78
2023-02-03T20:23:08.533Z,96625.63
2023-02-03T20:25:35.120Z,96633.94
2023-02-03T20:28:02.687Z,96634.91
2023-02-03T20:30:29.836Z,96628.22
2023-02-03T20:32:56.709Z,96622.09
2023-02-03T20:35:23.974Z,96626.63
2023-02-03T20:37:51.379Z,96632.72
2023-02-03T20:40:22.502Z,96625.38
2023-02-03T20:42:49.885Z,96641.50
2023-02-03T20:45:18.563Z,96648.50
2023-02-03T20:47:45.540Z,96642.09
2023-02-03T20:50:17.250Z,96646.00
2023-02-03T20:52:45.384Z,96630.47
2023-02-03T20:55:13.829Z,96629.28
2023-02-03T20:57:40.950Z,96629.34
2023-02-03T21:00:25.866Z,96641.72
2023-02-03T21:03:11.847Z,96627.66
2023-02-03T21:05:41.871Z,96634.34
2023-02-03T21:08:12.557Z,96629.84
2023-02-03T21:10:40.864Z,96623.22
2023-02-03T21:13:26.494Z,96620.50
2023-02-03T21:16:04.128Z,96612.81
2023-02-03T21:18:50.794Z,96611.63
2023-02-03T21:21:24.804Z,96622.19
2023-02-03T21:23:52.659Z,96623.22
2023-02-03T21:26:21.846Z,96612.59
2023-02-03T21:28:54.424Z,96611.38
2023-02-03T21:31:24.755Z,96615.34
2023-02-03T21:33:53.327Z,96618.06
2023-02-03T21:36:22.847Z,96611.13
2023-02-03T21:38:57.537Z,96613.06
2023-02-03T21:41:25.499Z,96619.69
2023-02-03T21:43:57.210Z,96613.25
2023-02-03T21:46:27.235Z,96599.22
2023-02-03T21:48:55.816Z,96619.22
2023-02-03T21:51:32.167Z,96610.28
2023-02-03T21:54:14.024Z,96609.19
2023-02-03T21:56:42.114Z,96631.19
2023-02-03T21:59:26.064Z,96634.34
2023-02-03T22:01:57.688Z,96645.06
2023-02-03T22:04:30.922Z,96642.97
2023-02-03T22:06:57.406Z,96657.88
2023-02-03T22:09:26.167Z,96654.09
2023-02-03T22:11:53.511Z,96663.03
2023-02-03T22:14:23.615Z,96664.97
2023-02-03T22:16:50.805Z,96655.13
2023-02-03T22:19:17.727Z,96640.31
2023-02-03T22:21:44.847Z,96624.53
2023-02-03T22:24:11.885Z,96627.56
2023-02-03T22:26:38.676Z,96635.66
2023-02-03T22:29:05.729Z,96681.47
2023-02-03T22:31:32.864Z,96677.34
2023-02-03T22:33:59.592Z,96675.09
2023-02-03T22:36:26.226Z,96678.09
2023-02-03T22:38:53.084Z,96695.41
2023-02-03T22:41:20.973Z,96691.25
2023-02-03T22:43:47.857Z,96684.22
2023-02-03T22:46:14.617Z,96689.44
2023-02-03T22:48:41.307Z,96695.91
2023-02-03T22:51:08.051Z,96712.81
2023-02-03T22:53:34.966Z,96706.13
2023-02-03T22:56:01.663Z,96704.13
2023-02-03T22:58:28.248Z,96723.47
2023-02-03T23:00:54.874Z,96710.88
2023-02-03T23:03:21.727Z,96745.53
2023-02-03T23:05:48.358Z,96725.63
2023-02-03T23:08:14.974Z,96719.59
2023-02-03T23:10:41.565Z,96740.38
2023-02-03T23:13:08.266Z,96741.34
2023-02-03T23:15:34.954Z,96763.66
2023-02-03T23:18:01.556Z,96739.66
2023-02-03T23:20:28.478Z,96751.66
2023-02-03T23:22:55.181Z,96740.69
2023-02-03T23:25:21.776Z,96745.50
2023-02-03T23:27:48.445Z,96771.56
2023-02-03T23:30:15.953Z,96770.66
2023-02-03T23:32:42.597Z,96748.94
2023-02-03T23:35:27.608Z,96764.91
2023-02-03T23:37:54.471Z,96776.47
2023-02-03T23:40:21.219Z,96767.72
2023-02-03T23:42:47.799Z,96777.16
2023-02-03T23:45:14.445Z,96754.97
2023-02-03T23:47:42.804Z,96750.88
2023-02-03T23:50:10.997Z,96741.69
2023-02-03T23:52:37.687Z,96743.31
2023-02-03T23:55:07.099Z,96752.53
2023-02-03T23:57:33.857Z,96755.34
